Time;durP1;ratioP1;P1;durP2;ratioP2;P2;SDS_P1;SDS_P2;PMS_P1;PMS_P2;Temp;Humidity;BMP_temperature;BMP_pressure;BME280_temperature;BME280_humidity;BME280_pressure;Samples;Min_cycle;Max_cycle;Signal;HPM_P1;HPM_P2
2022/11/16 00:01:29;;;;;;;23.52;14.77;;;10.00;99.90;;;;;;5107794;28;20039;-73
2022/11/16 00:03:58;;;;;;;24.60;15.98;;;10.00;99.90;;;;;;5102302;28;20525;-73
2022/11/16 00:06:24;;;;;;;27.15;16.38;;;9.90;99.90;;;;;;5072217;28;20502;-72
2022/11/16 00:11:43;;;;;;;24.27;16.33;;;9.90;99.90;;;;;;5107454;28;20075;-75
2022/11/16 00:14:09;;;;;;;27.85;16.50;;;9.90;99.90;;;;;;5105059;28;20038;-74
2022/11/16 00:16:35;;;;;;;27.65;16.17;;;9.80;99.90;;;;;;5091140;28;20107;-73
2022/11/16 00:19:03;;;;;;;24.40;15.88;;;9.90;99.90;;;;;;5075794;28;20040;-73
2022/11/16 00:21:30;;;;;;;27.70;17.25;;;9.80;99.90;;;;;;5088532;28;20030;-76
2022/11/16 00:23:56;;;;;;;25.90;16.80;;;9.80;99.90;;;;;;5107111;28;20527;-73
2022/11/16 00:26:23;;;;;;;25.08;16.23;;;9.80;99.90;;;;;;5105974;28;20069;-73
2022/11/16 00:28:51;;;;;;;30.55;17.52;;;9.70;99.90;;;;;;5104638;28;20441;-73
2022/11/16 00:31:17;;;;;;;27.02;16.88;;;9.70;99.90;;;;;;5110027;28;20510;-73
2022/11/16 00:33:43;;;;;;;25.65;16.25;;;9.70;99.90;;;;;;5089557;28;20028;-73
2022/11/16 00:36:10;;;;;;;28.38;16.20;;;9.70;99.90;;;;;;5107255;28;20562;-73
2022/11/16 00:38:37;;;;;;;29.00;17.40;;;9.60;99.90;;;;;;5072336;28;20031;-74
2022/11/16 00:41:03;;;;;;;25.63;16.15;;;9.60;99.90;;;;;;5089314;28;20031;-73
2022/11/16 00:43:29;;;;;;;28.10;18.13;;;9.60;99.90;;;;;;5088762;28;20036;-73
2022/11/16 00:45:55;;;;;;;27.65;17.13;;;9.60;99.90;;;;;;5108722;28;20487;-73
2022/11/16 00:48:20;;;;;;;33.08;17.98;;;9.60;99.90;;;;;;5087026;28;20300;-73
2022/11/16 00:50:47;;;;;;;31.10;17.63;;;9.60;99.90;;;;;;5091764;28;20040;-73
2022/11/16 00:53:14;;;;;;;29.73;18.25;;;9.60;99.90;;;;;;5102482;27;20519;-73
2022/11/16 00:55:40;;;;;;;28.20;17.80;;;9.60;99.90;;;;;;5071533;28;20384;-73
2022/11/16 00:58:06;;;;;;;28.20;18.27;;;9.60;99.90;;;;;;5108577;28;20035;-73
2022/11/16 01:00:32;;;;;;;29.58;18.63;;;9.60;99.90;;;;;;5088961;28;20583;-73
2022/11/16 01:02:58;;;;;;;29.60;18.98;;;9.60;99.90;;;;;;5104314;27;20087;-73
2022/11/16 01:05:26;;;;;;;30.25;19.05;;;9.50;99.90;;;;;;5107445;28;20111;-73
2022/11/16 01:07:52;;;;;;;31.23;19.42;;;9.50;99.90;;;;;;5092137;28;20023;-73
2022/11/16 01:10:20;;;;;;;33.35;18.85;;;9.50;99.90;;;;;;5104846;28;20027;-73
2022/11/16 01:12:48;;;;;;;33.85;20.08;;;9.40;99.90;;;;;;5104178;28;20020;-73
2022/11/16 01:15:15;;;;;;;29.65;18.55;;;9.40;99.90;;;;;;5086450;28;20032;-74
2022/11/16 01:17:40;;;;;;;30.65;19.17;;;9.30;99.90;;;;;;5105411;28;20019;-73
2022/11/16 01:20:10;;;;;;;29.58;18.25;;;9.30;99.90;;;;;;5088072;28;20494;-73
2022/11/16 01:22:37;;;;;;;31.77;18.83;;;9.30;99.90;;;;;;5104407;28;20037;-73
2022/11/16 01:25:04;;;;;;;30.45;18.60;;;9.30;99.90;;;;;;5100622;28;20042;-74
2022/11/16 01:27:30;;;;;;;33.90;18.67;;;9.40;99.90;;;;;;5106810;28;20193;-74
2022/11/16 01:29:56;;;;;;;34.70;19.63;;;9.40;99.90;;;;;;5106044;28;20028;-73
2022/11/16 01:32:22;;;;;;;34.22;19.73;;;9.30;99.90;;;;;;5105334;28;20391;-73
2022/11/16 01:34:48;;;;;;;34.80;21.35;;;9.30;99.90;;;;;;5088747;28;20568;-73
2022/11/16 01:37:14;;;;;;;36.30;21.58;;;9.20;99.90;;;;;;5103141;28;20032;-73
2022/11/16 01:39:40;;;;;;;33.85;20.83;;;9.20;99.90;;;;;;5106304;28;20050;-75
2022/11/16 01:42:06;;;;;;;33.92;19.92;;;9.10;99.90;;;;;;5086195;28;20495;-74
2022/11/16 01:44:31;;;;;;;34.83;20.13;;;9.20;99.90;;;;;;5090908;28;20671;-74
2022/11/16 01:47:04;;;;;;;37.30;21.30;;;9.20;99.90;;;;;;5100348;28;20027;-74
2022/11/16 01:49:33;;;;;;;35.10;20.25;;;9.10;99.90;;;;;;5087976;28;20684;-74
2022/11/16 01:52:04;;;;;;;33.80;21.20;;;9.10;99.90;;;;;;5084759;28;20024;-74
2022/11/16 01:54:33;;;;;;;35.45;21.27;;;9.10;99.90;;;;;;5104124;28;20032;-75
2022/11/16 01:57:04;;;;;;;35.80;20.83;;;9.00;99.90;;;;;;5090844;28;20505;-74
2022/11/16 01:59:30;;;;;;;34.42;19.08;;;9.00;99.90;;;;;;5103739;28;20024;-74
2022/11/16 02:01:59;;;;;;;34.55;19.90;;;9.00;99.90;;;;;;5105243;28;20032;-74
2022/11/16 02:04:25;;;;;;;36.17;21.00;;;9.10;99.90;;;;;;5086867;28;20506;-74
2022/11/16 02:07:12;;;;;;;35.67;21.50;;;9.00;99.90;;;;;;5084382;28;20024;-74
2022/11/16 02:10:04;;;;;;;36.80;19.98;;;9.00;99.90;;;;;;5089291;28;20035;-74
2022/11/16 02:12:50;;;;;;;36.25;20.85;;;8.90;99.90;;;;;;5073371;28;20048;-74
2022/11/16 02:15:25;;;;;;;36.85;20.83;;;8.90;99.90;;;;;;5106051;28;20048;-74
2022/11/16 02:18:03;;;;;;;34.58;20.23;;;8.80;99.90;;;;;;5084409;28;20023;-74
2022/11/16 02:21:05;;;;;;;34.13;19.23;;;8.90;99.90;;;;;;5101387;28;20028;-74
2022/11/16 02:23:58;;;;;;;35.05;19.95;;;8.80;99.90;;;;;;5085400;28;20043;-74
2022/11/16 02:26:30;;;;;;;35.13;18.95;;;8.80;99.90;;;;;;5086823;28;20131;-74
2022/11/16 02:29:17;;;;;;;39.58;21.27;;;8.80;99.90;;;;;;5072497;28;20077;-74
2022/11/16 02:31:50;;;;;;;37.38;20.85;;;8.80;99.90;;;;;;5101821;28;20101;-73
2022/11/16 02:34:18;;;;;;;35.90;20.13;;;8.70;99.90;;;;;;5089170;28;20023;-74
2022/11/16 02:36:48;;;;;;;38.92;21.98;;;8.70;99.90;;;;;;5102880;28;20167;-75
2022/11/16 02:39:18;;;;;;;38.55;20.77;;;8.70;99.90;;;;;;5089913;28;20027;-74
2022/11/16 02:41:47;;;;;;;38.65;20.85;;;8.60;99.90;;;;;;5086675;28;20028;-74
2022/11/16 02:44:24;;;;;;;42.25;22.08;;;8.60;99.90;;;;;;5088981;28;20034;-74
2022/11/16 02:46:56;;;;;;;41.25;21.02;;;8.60;99.90;;;;;;5087790;28;20435;-74
2022/11/16 02:49:24;;;;;;;35.70;20.45;;;8.60;99.90;;;;;;5104244;28;20084;-72
2022/11/16 02:51:51;;;;;;;37.63;20.17;;;8.60;99.90;;;;;;5086870;28;20488;-72
2022/11/16 02:54:19;;;;;;;38.58;21.77;;;8.70;99.90;;;;;;5071566;28;20440;-72
2022/11/16 02:56:57;;;;;;;39.03;21.33;;;8.60;99.90;;;;;;5102720;28;20162;-72
2022/11/16 02:59:27;;;;;;;38.67;21.30;;;8.60;99.90;;;;;;5073070;28;20023;-74
2022/11/16 03:02:24;;;;;;;36.85;20.30;;;8.60;99.90;;;;;;5105010;28;21284;-72
2022/11/16 03:05:08;;;;;;;36.85;20.10;;;8.60;99.90;;;;;;5086147;28;20036;-73
2022/11/16 03:07:49;;;;;;;39.55;21.25;;;8.70;99.90;;;;;;5089191;28;20027;-72
2022/11/16 03:11:58;;;;;;;36.83;20.83;;;8.70;99.90;;;;;;5087283;28;20024;-73
2022/11/16 03:13:07;;;;;;;37.95;19.77;;;8.70;99.90;;;;;;5104350;28;20555;-73
2022/11/16 03:15:36;;;;;;;36.92;20.50;;;8.80;99.90;;;;;;5105013;28;20028;-73
2022/11/16 03:18:06;;;;;;;37.67;21.05;;;8.70;99.90;;;;;;5103129;28;20031;-73
2022/11/16 03:20:34;;;;;;;42.53;20.20;;;8.70;99.90;;;;;;5088841;28;20103;-73
2022/11/16 03:23:03;;;;;;;39.50;22.13;;;8.70;99.90;;;;;;5100641;28;20051;-73
2022/11/16 03:25:34;;;;;;;41.15;22.88;;;8.70;99.90;;;;;;5086251;28;20028;-73
2022/11/16 03:28:11;;;;;;;40.00;21.27;;;8.70;99.90;;;;;;5102856;28;20024;-72
2022/11/16 03:30:45;;;;;;;41.75;22.35;;;8.70;99.90;;;;;;5104565;28;20792;-74
2022/11/16 03:33:29;;;;;;;46.08;23.25;;;8.60;99.90;;;;;;5086043;28;20024;-74
2022/11/16 03:36:02;;;;;;;43.67;22.75;;;8.60;99.90;;;;;;5088064;28;20028;-74
2022/11/16 03:38:28;;;;;;;42.45;21.45;;;8.60;99.90;;;;;;5103949;28;20028;-74
2022/11/16 03:41:01;;;;;;;41.25;22.30;;;8.70;99.90;;;;;;5102512;28;20028;-72
2022/11/16 03:43:27;;;;;;;40.53;22.15;;;8.70;99.90;;;;;;5103007;28;20069;-74
2022/11/16 03:45:53;;;;;;;41.63;22.40;;;8.60;99.90;;;;;;5070540;28;20509;-75
2022/11/16 03:48:19;;;;;;;42.05;22.77;;;8.60;99.90;;;;;;5101882;28;20411;-74
2022/11/16 03:50:45;;;;;;;44.38;22.67;;;8.60;99.90;;;;;;5087377;28;20028;-74
2022/11/16 03:53:11;;;;;;;42.38;22.63;;;8.60;99.90;;;;;;5083399;28;20025;-74
2022/11/16 03:55:37;;;;;;;39.67;20.25;;;8.50;99.90;;;;;;5106785;28;20119;-74
2022/11/16 03:58:03;;;;;;;42.47;21.27;;;8.50;99.90;;;;;;5084048;28;20039;-74
2022/11/16 04:00:29;;;;;;;42.15;21.38;;;8.60;99.90;;;;;;5102206;28;20523;-74
2022/11/16 04:02:55;;;;;;;44.22;21.63;;;8.50;99.90;;;;;;5084878;28;20096;-74
2022/11/16 04:24:42;;;;;;;41.78;21.95;;;8.50;99.90;;;;;;5108393;28;20417;-73
2022/11/16 04:29:58;;;;;;;45.25;22.08;;;8.50;99.90;;;;;;5107883;28;20112;-73
2022/11/16 04:37:54;;;;;;;42.67;20.52;;;8.40;99.90;;;;;;5098083;28;20692;-73
2022/11/16 04:40:28;;;;;;;39.60;20.45;;;8.40;99.90;;;;;;5088868;28;20081;-73
2022/11/16 04:42:58;;;;;;;38.70;21.70;;;8.40;99.90;;;;;;5106592;28;20094;-74
2022/11/16 04:48:10;;;;;;;37.42;21.13;;;8.40;99.90;;;;;;5105258;28;20100;-73
2022/11/16 04:50:36;;;;;;;43.60;22.10;;;8.40;99.90;;;;;;5107155;28;20408;-73
2022/11/16 04:53:02;;;;;;;40.63;22.10;;;8.40;99.90;;;;;;5104963;28;20024;-73
2022/11/16 04:55:28;;;;;;;41.63;21.67;;;8.40;99.90;;;;;;5090063;28;20051;-73
2022/11/16 04:57:54;;;;;;;40.72;20.50;;;8.40;99.90;;;;;;5100650;27;20139;-72
2022/11/16 05:00:20;;;;;;;38.33;21.50;;;8.40;99.90;;;;;;5090774;28;20104;-73
2022/11/16 05:02:46;;;;;;;38.50;21.73;;;8.40;99.90;;;;;;5089951;28;20538;-73
2022/11/16 05:05:12;;;;;;;40.40;22.55;;;8.40;99.90;;;;;;5105568;28;20119;-73
2022/11/16 05:07:38;;;;;;;40.83;21.70;;;8.40;99.90;;;;;;5105356;28;20384;-73
2022/11/16 05:10:05;;;;;;;45.38;21.83;;;8.40;99.90;;;;;;5090965;28;20110;-73
2022/11/16 05:12:32;;;;;;;44.65;23.15;;;8.30;99.90;;;;;;5087182;28;20028;-73
2022/11/16 05:14:58;;;;;;;40.05;21.58;;;8.30;99.90;;;;;;5104903;28;20413;-73
2022/11/16 05:17:25;;;;;;;41.10;20.83;;;8.30;99.90;;;;;;5089095;28;20024;-73
2022/11/16 05:22:36;;;;;;;43.63;22.30;;;8.30;99.90;;;;;;5104890;28;20398;-74
2022/11/16 05:25:03;;;;;;;43.80;22.48;;;8.30;99.90;;;;;;5091374;28;20327;-74
2022/11/16 05:27:29;;;;;;;44.28;22.15;;;8.30;99.90;;;;;;5101807;28;20496;-74
2022/11/16 05:29:55;;;;;;;39.95;20.65;;;8.30;99.90;;;;;;5102611;28;20032;-74
2022/11/16 05:32:22;;;;;;;40.85;21.65;;;8.30;99.90;;;;;;5070375;28;20031;-74
2022/11/16 05:34:48;;;;;;;44.80;21.80;;;8.20;99.90;;;;;;5101640;27;20056;-74
2022/11/16 05:37:15;;;;;;;43.60;21.35;;;8.20;99.90;;;;;;5100201;28;20078;-74
2022/11/16 05:39:41;;;;;;;42.47;21.55;;;8.10;99.90;;;;;;5106843;28;20531;-73
2022/11/16 05:42:07;;;;;;;41.05;21.52;;;8.10;99.90;;;;;;5100964;28;20023;-74
2022/11/16 05:44:33;;;;;;;38.38;20.70;;;8.20;99.90;;;;;;5102598;28;20026;-75
2022/11/16 05:46:59;;;;;;;40.80;21.60;;;8.20;99.90;;;;;;5069630;28;20040;-74
2022/11/16 05:49:25;;;;;;;37.53;19.88;;;8.20;99.90;;;;;;5099228;28;20499;-73
2022/11/16 05:51:51;;;;;;;38.47;20.67;;;8.10;99.90;;;;;;5101572;28;20020;-74
2022/11/16 05:54:19;;;;;;;40.88;20.90;;;8.10;99.90;;;;;;5106700;28;20027;-73
2022/11/16 05:56:47;;;;;;;39.65;20.65;;;8.10;99.90;;;;;;5105781;28;20026;-75
2022/11/16 05:59:15;;;;;;;41.88;21.45;;;8.10;99.90;;;;;;5106790;27;20043;-74
2022/11/16 06:01:41;;;;;;;40.67;21.00;;;8.20;99.90;;;;;;5090560;28;20028;-74
2022/11/16 06:04:07;;;;;;;42.88;21.02;;;8.10;99.90;;;;;;5068396;28;20028;-74
2022/11/16 06:06:33;;;;;;;38.95;19.67;;;8.10;99.90;;;;;;5102967;28;20491;-74
2022/11/16 06:08:59;;;;;;;41.70;20.23;;;8.10;99.90;;;;;;5099718;28;20028;-74
2022/11/16 06:11:25;;;;;;;40.42;20.75;;;8.10;99.90;;;;;;5105362;28;20024;-73
2022/11/16 06:13:51;;;;;;;41.95;21.23;;;8.10;99.90;;;;;;5085942;28;20123;-75
2022/11/16 06:16:17;;;;;;;37.60;20.58;;;8.10;99.90;;;;;;5069961;28;20100;-73
2022/11/16 06:18:45;;;;;;;42.47;20.80;;;8.10;99.90;;;;;;5084139;28;20031;-74
2022/11/16 06:21:12;;;;;;;38.65;20.85;;;8.10;99.90;;;;;;5099102;27;20043;-73
2022/11/16 06:23:38;;;;;;;40.65;20.10;;;8.10;99.90;;;;;;5088078;28;20032;-73
2022/11/16 06:26:04;;;;;;;41.17;21.35;;;8.10;99.90;;;;;;5086789;28;20031;-73
2022/11/16 06:28:31;;;;;;;42.55;21.30;;;8.10;99.90;;;;;;5101378;28;20114;-73
2022/11/16 06:30:56;;;;;;;41.78;20.77;;;8.00;99.90;;;;;;5095878;28;20047;-74
2022/11/16 06:33:23;;;;;;;41.60;19.73;;;8.10;99.90;;;;;;5097050;28;20027;-72
2022/11/16 06:35:48;;;;;;;41.72;21.05;;;8.10;99.90;;;;;;5094353;28;20044;-72
2022/11/16 06:38:19;;;;;;;35.20;18.58;;;8.00;99.90;;;;;;5101837;28;20510;-73
2022/11/16 06:40:49;;;;;;;37.50;19.70;;;8.10;99.90;;;;;;5102168;28;20763;-73
2022/11/16 06:43:15;;;;;;;33.65;17.75;;;8.00;99.90;;;;;;5101915;28;20829;-73
2022/11/16 06:45:41;;;;;;;41.38;20.65;;;8.10;99.90;;;;;;5089975;28;20110;-73
2022/11/16 06:48:07;;;;;;;38.60;20.20;;;8.10;99.90;;;;;;5079757;28;20051;-73
2022/11/16 06:50:33;;;;;;;38.47;19.08;;;8.10;99.90;;;;;;5094013;28;20035;-74
2022/11/16 06:53:02;;;;;;;38.88;20.00;;;8.10;99.90;;;;;;5078024;28;20024;-73
2022/11/16 06:55:28;;;;;;;41.22;20.10;;;8.10;99.90;;;;;;5066669;28;20383;-73
2022/11/16 06:57:54;;;;;;;40.85;20.88;;;8.10;99.90;;;;;;5087036;28;20028;-73
2022/11/16 07:00:20;;;;;;;33.85;18.42;;;8.00;99.90;;;;;;5097840;28;20043;-74
2022/11/16 07:02:46;;;;;;;35.67;17.55;;;8.10;99.90;;;;;;5082089;28;20032;-73
2022/11/16 07:05:12;;;;;;;35.45;19.00;;;8.10;99.90;;;;;;5100195;28;20036;-74
2022/11/16 07:07:39;;;;;;;34.75;18.08;;;8.10;99.90;;;;;;5088580;28;20047;-74
2022/11/16 07:10:05;;;;;;;35.10;17.55;;;8.10;99.90;;;;;;5080665;28;20058;-73
2022/11/16 07:12:31;;;;;;;34.60;18.25;;;8.10;99.90;;;;;;5094054;28;20061;-71
2022/11/16 07:14:57;;;;;;;36.22;18.83;;;8.10;99.90;;;;;;5086430;28;20031;-73
2022/11/16 07:17:23;;;;;;;36.83;19.27;;;8.00;99.90;;;;;;5100417;28;20028;-73
2022/11/16 07:19:48;;;;;;;36.15;19.17;;;8.10;99.90;;;;;;5084943;28;20046;-73
2022/11/16 07:22:14;;;;;;;34.65;18.70;;;8.00;99.90;;;;;;5077972;28;20036;-73
2022/11/16 07:24:40;;;;;;;38.30;19.15;;;8.00;99.90;;;;;;5087858;28;20028;-73
2022/11/16 07:27:07;;;;;;;35.75;18.70;;;8.00;99.90;;;;;;5076782;28;20019;-73
2022/11/16 07:29:33;;;;;;;34.05;19.35;;;8.00;99.90;;;;;;5088686;28;20475;-73
2022/11/16 07:31:58;;;;;;;40.75;21.02;;;8.00;99.90;;;;;;5074799;28;20035;-73
2022/11/16 07:34:25;;;;;;;39.00;21.17;;;8.00;99.90;;;;;;5102558;28;20032;-74
2022/11/16 07:36:50;;;;;;;37.33;19.83;;;8.00;99.90;;;;;;5085843;28;20026;-73
2022/11/16 07:39:16;;;;;;;40.08;21.15;;;8.00;99.90;;;;;;5076476;28;20123;-74
2022/11/16 07:41:43;;;;;;;37.90;20.85;;;8.10;99.90;;;;;;5095100;28;20050;-73
2022/11/16 07:44:09;;;;;;;36.75;20.05;;;8.00;99.90;;;;;;5101365;28;20039;-73
2022/11/16 07:46:34;;;;;;;40.78;20.75;;;8.00;99.90;;;;;;5079903;28;20032;-74
2022/11/16 07:49:00;;;;;;;39.83;20.85;;;8.00;99.90;;;;;;5107649;28;20027;-73
2022/11/16 07:51:26;;;;;;;42.50;21.67;;;8.00;99.90;;;;;;5088522;28;20047;-74
2022/11/16 07:53:54;;;;;;;39.78;21.42;;;8.00;99.90;;;;;;5109517;28;20028;-73
2022/11/16 07:56:20;;;;;;;41.83;21.95;;;8.00;99.90;;;;;;5104622;28;20066;-73
2022/11/16 07:58:46;;;;;;;43.55;22.38;;;8.00;99.90;;;;;;5108823;28;20024;-73
2022/11/16 08:01:14;;;;;;;45.22;23.80;;;8.00;99.90;;;;;;5086558;28;20069;-73
2022/11/16 08:03:41;;;;;;;44.15;22.73;;;8.00;99.90;;;;;;5089258;28;20555;-73
2022/11/16 08:06:13;;;;;;;41.95;23.08;;;8.00;99.90;;;;;;5069861;28;20036;-73
2022/11/16 08:08:39;;;;;;;46.70;24.73;;;8.00;99.90;;;;;;5106320;28;20042;-73
2022/11/16 08:11:07;;;;;;;44.80;23.48;;;8.00;99.90;;;;;;5103719;28;20467;-73
2022/11/16 08:13:34;;;;;;;45.28;22.58;;;8.00;99.90;;;;;;5092428;28;20019;-73
2022/11/16 08:16:07;;;;;;;44.78;23.13;;;8.00;99.90;;;;;;5100446;28;20040;-73
2022/11/16 08:18:34;;;;;;;42.95;23.05;;;8.00;99.90;;;;;;5092427;28;20262;-72
2022/11/16 08:21:01;;;;;;;45.67;24.20;;;8.10;99.90;;;;;;5103214;28;20035;-72
2022/11/16 08:23:27;;;;;;;42.50;22.15;;;8.00;99.90;;;;;;5095412;28;20027;-72
2022/11/16 08:26:00;;;;;;;43.40;23.60;;;8.00;99.90;;;;;;5075411;28;20122;-73
2022/11/16 08:28:27;;;;;;;44.30;23.35;;;8.00;99.90;;;;;;5113494;28;20020;-75
2022/11/16 08:30:53;;;;;;;42.45;22.30;;;7.90;99.90;;;;;;5108999;27;20032;-73
2022/11/16 08:33:20;;;;;;;42.53;22.15;;;8.00;99.90;;;;;;5105624;28;20079;-73
2022/11/16 08:35:53;;;;;;;44.03;24.02;;;8.00;99.90;;;;;;5091936;28;20036;-73
2022/11/16 08:38:19;;;;;;;40.08;21.63;;;7.90;99.90;;;;;;5092268;28;20027;-73
2022/11/16 08:40:45;;;;;;;43.22;23.35;;;7.90;99.90;;;;;;5091734;28;20038;-73
2022/11/16 08:43:11;;;;;;;43.50;23.08;;;7.90;99.90;;;;;;5084547;28;20132;-73
2022/11/16 08:45:38;;;;;;;42.95;24.25;;;8.00;99.90;;;;;;5090279;28;20028;-73
2022/11/16 08:48:04;;;;;;;45.67;23.23;;;8.00;99.90;;;;;;5090354;28;20801;-73
2022/11/16 08:50:31;;;;;;;47.47;24.42;;;8.00;99.90;;;;;;5090999;28;20054;-73
2022/11/16 08:52:56;;;;;;;42.90;23.33;;;7.90;99.90;;;;;;5092157;28;20035;-72
2022/11/16 08:55:23;;;;;;;48.72;23.83;;;7.90;99.90;;;;;;5090242;28;20560;-73
2022/11/16 08:57:49;;;;;;;51.38;24.67;;;8.00;99.90;;;;;;5087869;28;20388;-72
2022/11/16 09:00:15;;;;;;;46.17;23.40;;;7.90;99.90;;;;;;5091267;28;20036;-73
2022/11/16 09:02:41;;;;;;;44.05;23.30;;;7.90;99.90;;;;;;5106758;28;20034;-73
2022/11/16 09:05:10;;;;;;;47.88;24.08;;;7.90;99.90;;;;;;5089770;28;20035;-73
2022/11/16 09:07:36;;;;;;;49.70;23.95;;;7.90;99.90;;;;;;5091691;28;20106;-73
2022/11/16 09:10:03;;;;;;;47.13;25.02;;;7.80;99.90;;;;;;5108949;28;20055;-73
2022/11/16 09:12:30;;;;;;;48.30;24.13;;;7.80;99.90;;;;;;5109163;28;20054;-73
2022/11/16 09:14:55;;;;;;;48.47;24.55;;;7.80;99.90;;;;;;5105073;28;20273;-73
2022/11/16 09:17:21;;;;;;;45.72;22.70;;;7.80;99.90;;;;;;5103633;28;20024;-72
2022/11/16 09:19:47;;;;;;;51.10;24.70;;;7.80;99.90;;;;;;5105709;28;20259;-73
2022/11/16 09:22:12;;;;;;;43.42;22.20;;;7.90;99.90;;;;;;5093343;28;20492;-72
2022/11/16 09:24:40;;;;;;;46.78;24.08;;;7.80;99.90;;;;;;5089209;28;20030;-74
2022/11/16 09:27:05;;;;;;;49.42;24.65;;;7.80;99.90;;;;;;5093495;28;20151;-74
2022/11/16 09:29:31;;;;;;;45.83;22.30;;;7.80;99.90;;;;;;5107675;28;20127;-74
2022/11/16 09:31:57;;;;;;;47.65;25.20;;;7.80;99.90;;;;;;5101335;28;20036;-74
2022/11/16 09:34:24;;;;;;;47.85;23.85;;;7.80;99.90;;;;;;5072709;28;20505;-73
2022/11/16 09:36:50;;;;;;;51.22;24.80;;;7.80;99.90;;;;;;5077841;28;20039;-72
2022/11/16 09:39:16;;;;;;;51.47;24.52;;;7.80;99.90;;;;;;5075021;28;20177;-72
2022/11/16 09:41:55;;;;;;;50.70;23.02;;;7.80;99.90;;;;;;5110542;28;20483;-73
2022/11/16 09:44:24;;;;;;;48.67;24.42;;;7.80;99.90;;;;;;5111380;28;20051;-73
2022/11/16 09:46:55;;;;;;;49.58;23.95;;;7.80;99.90;;;;;;5091830;28;20580;-73
2022/11/16 09:49:30;;;;;;;49.30;23.65;;;7.80;99.90;;;;;;5106505;28;20023;-72
2022/11/16 09:52:01;;;;;;;56.70;24.48;;;7.80;99.90;;;;;;5107303;28;20106;-73
2022/11/16 09:54:28;;;;;;;;;;;7.80;99.90;;;;;;5078367;28;20030;-73
2022/11/16 09:56:58;;;;;;;49.85;24.13;;;7.80;99.90;;;;;;5107961;28;19915;-73
2022/11/16 09:59:28;;;;;;;52.30;22.90;;;7.80;99.90;;;;;;5091232;28;20150;-73
2022/11/16 10:02:13;;;;;;;54.13;23.63;;;7.80;99.90;;;;;;5108232;28;20100;-73
2022/11/16 10:04:48;;;;;;;48.03;23.42;;;7.80;99.90;;;;;;5091540;28;20436;-73
2022/11/16 10:07:21;;;;;;;58.72;24.70;;;7.80;99.90;;;;;;5104709;28;20035;-73
2022/11/16 10:09:47;;;;;;;63.35;23.73;;;7.80;99.90;;;;;;5108315;28;20226;-73
2022/11/16 10:12:28;;;;;;;54.15;23.52;;;7.80;99.90;;;;;;5100071;28;20099;-74
2022/11/16 10:15:11;;;;;;;52.50;23.77;;;7.80;99.90;;;;;;5090549;28;20379;-73
2022/11/16 10:17:45;;;;;;;52.20;23.52;;;7.80;99.90;;;;;;5106821;28;20364;-73
2022/11/16 10:20:52;;;;;;;53.63;24.33;;;7.80;99.90;;;;;;5103641;28;20027;-72
2022/11/16 10:23:29;;;;;;;56.78;23.92;;;7.80;99.90;;;;;;5107365;28;20122;-72
2022/11/16 10:26:17;;;;;;;55.75;25.45;;;7.80;99.90;;;;;;5082981;28;20400;-74
2022/11/16 10:29:18;;;;;;;51.88;23.92;;;7.80;99.90;;;;;;5112411;27;20016;-74
2022/11/16 10:32:27;;;;;;;52.85;23.85;;;7.80;99.90;;;;;;5090410;28;20019;-74
2022/11/16 10:35:04;;;;;;;48.65;21.92;;;7.80;99.90;;;;;;5084731;28;20031;-75
2022/11/16 10:37:33;;;;;;;54.63;23.83;;;7.70;99.90;;;;;;5089933;28;20016;-74
2022/11/16 10:40:01;;;;;;;55.30;23.67;;;7.70;99.90;;;;;;5114896;28;20019;-74
2022/11/16 10:42:39;;;;;;;56.17;25.02;;;7.70;99.90;;;;;;5108559;28;20028;-73
2022/11/16 10:45:38;;;;;;;57.80;23.77;;;7.70;99.90;;;;;;5083097;28;20070;-74
2022/11/16 10:48:20;;;;;;;62.13;25.83;;;7.70;99.90;;;;;;5096370;28;20027;-72
2022/11/16 10:50:48;;;;;;;55.65;24.80;;;7.70;99.90;;;;;;5089100;28;20030;-73
2022/11/16 10:53:30;;;;;;;58.38;25.50;;;7.70;99.90;;;;;;5089477;28;20023;-73
2022/11/16 10:56:16;;;;;;;61.58;26.38;;;7.70;99.90;;;;;;5104202;28;20035;-74
2022/11/16 10:58:52;;;;;;;60.88;26.30;;;7.70;99.90;;;;;;5087088;28;20050;-74
2022/11/16 11:01:36;;;;;;;61.67;24.75;;;7.60;99.90;;;;;;5072741;28;20384;-74
2022/11/16 11:04:14;;;;;;;63.85;26.48;;;7.70;99.90;;;;;;5078101;28;20478;-73
2022/11/16 11:06:41;;;;;;;64.50;27.60;;;7.70;99.90;;;;;;5104679;27;20124;-74
2022/11/16 11:09:31;;;;;;;59.45;26.00;;;7.70;99.90;;;;;;5090955;28;20115;-75
2022/11/16 11:15:00;;;;;;;62.15;26.27;;;7.70;99.90;;;;;;5104842;28;20026;-74
2022/11/16 11:17:27;;;;;;;59.35;24.63;;;7.70;99.90;;;;;;5103997;28;20064;-74
2022/11/16 11:19:58;;;;;;;59.65;24.88;;;7.70;99.90;;;;;;5093624;28;20027;-74
2022/11/16 11:22:24;;;;;;;;;;;7.70;99.90;;;;;;5107679;28;20051;-74
2022/11/16 11:24:50;;;;;;;66.15;25.20;;;7.80;99.90;;;;;;5103216;28;19912;-74
2022/11/16 11:27:29;;;;;;;61.63;26.08;;;7.80;99.90;;;;;;5107124;28;20413;-73
2022/11/16 11:29:57;;;;;;;64.18;26.33;;;7.80;99.90;;;;;;5097510;28;20110;-74
2022/11/16 11:32:31;;;;;;;60.00;25.38;;;7.80;99.90;;;;;;5087214;28;20087;-74
2022/11/16 11:34:58;;;;;;;65.32;25.48;;;7.80;99.90;;;;;;5097107;28;20566;-73
2022/11/16 11:37:30;;;;;;;62.58;25.48;;;7.80;99.90;;;;;;5106602;28;20100;-74
2022/11/16 11:40:08;;;;;;;59.70;26.45;;;7.80;99.90;;;;;;5104250;28;20027;-74
2022/11/16 11:42:37;;;;;;;68.93;26.38;;;7.80;99.90;;;;;;5105759;28;20026;-74
2022/11/16 11:45:08;;;;;;;61.95;26.40;;;7.80;99.90;;;;;;5083084;28;20030;-74
2022/11/16 11:48:07;;;;;;;68.25;27.13;;;7.80;99.90;;;;;;5104029;28;20030;-73
2022/11/16 11:51:08;;;;;;;59.10;26.33;;;7.80;99.90;;;;;;5058509;28;20032;-74
2022/11/16 11:53:52;;;;;;;64.05;25.77;;;7.80;99.90;;;;;;5099928;28;20032;-74
2022/11/16 11:56:19;;;;;;;62.35;26.95;;;7.80;99.90;;;;;;5105733;28;20506;-73
2022/11/16 11:58:46;;;;;;;62.03;25.58;;;7.90;99.90;;;;;;5094808;28;20034;-73
2022/11/16 12:01:40;;;;;;;60.28;26.60;;;7.90;99.90;;;;;;5103599;28;20432;-73
2022/11/16 12:04:40;;;;;;;62.10;26.08;;;7.90;99.90;;;;;;5088470;28;20449;-73
2022/11/16 12:07:06;;;;;;;68.82;28.15;;;7.90;99.90;;;;;;5071930;28;20044;-73
2022/11/16 12:10:08;;;;;;;64.05;27.65;;;8.00;99.90;;;;;;5076965;28;20050;-73
2022/11/16 12:13:04;;;;;;;64.82;27.45;;;8.00;99.90;;;;;;5070996;28;20036;-73
2022/11/16 12:16:11;;;;;;;59.38;25.67;;;8.00;99.90;;;;;;5108628;28;20085;-74
2022/11/16 12:19:05;;;;;;;63.70;26.40;;;8.00;99.90;;;;;;5007358;28;20588;-74
2022/11/16 12:21:33;;;;;;;66.63;27.58;;;8.10;99.90;;;;;;5031226;28;20143;-74
2022/11/16 12:24:05;;;;;;;67.55;26.90;;;8.00;99.90;;;;;;5083703;27;20067;-73
2022/11/16 12:26:41;;;;;;;138.10;61.17;;;8.00;99.90;;;;;;5108910;28;20081;-74
2022/11/16 12:29:24;;;;;;;97.60;43.17;;;8.10;99.90;;;;;;5105649;28;20427;-73
2022/11/16 12:32:15;;;;;;;139.00;60.35;;;8.10;99.90;;;;;;5088352;28;20483;-74
2022/11/16 12:35:05;;;;;;;97.40;47.25;;;8.10;99.90;;;;;;5092248;28;20122;-73
2022/11/16 12:37:42;;;;;;;76.07;33.80;;;8.10;99.90;;;;;;5076126;28;20093;-73
2022/11/16 12:40:36;;;;;;;76.05;29.55;;;8.20;99.90;;;;;;5098829;28;20108;-72
2022/11/16 12:43:28;;;;;;;78.63;30.27;;;8.20;99.90;;;;;;5092076;28;20034;-73
2022/11/16 12:46:04;;;;;;;67.00;28.02;;;8.20;99.90;;;;;;5081482;28;20135;-73
2022/11/16 12:49:16;;;;;;;78.35;30.60;;;8.10;99.90;;;;;;5080326;28;20055;-74
2022/11/16 12:52:00;;;;;;;83.60;30.58;;;8.10;99.90;;;;;;5105140;28;20023;-74
2022/11/16 12:54:57;;;;;;;85.53;31.15;;;8.10;99.90;;;;;;5090997;28;20019;-74
2022/11/16 12:57:38;;;;;;;78.32;28.38;;;8.10;99.90;;;;;;5093736;28;20452;-74
2022/11/16 13:00:10;;;;;;;78.72;31.42;;;8.10;99.90;;;;;;5107419;28;20020;-74
2022/11/16 13:02:55;;;;;;;76.75;29.38;;;8.10;99.90;;;;;;5103075;28;20027;-74
2022/11/16 13:05:52;;;;;;;72.60;28.70;;;8.10;99.90;;;;;;5095941;28;20035;-73
2022/11/16 13:08:25;;;;;;;75.35;30.02;;;8.20;99.90;;;;;;5079988;28;20126;-74
2022/11/16 13:10:58;;;;;;;69.70;29.15;;;8.10;99.90;;;;;;5109901;28;20019;-74
2022/11/16 13:13:30;;;;;;;72.15;30.55;;;8.10;99.90;;;;;;5091437;28;20035;-74
2022/11/16 13:16:00;;;;;;;80.35;31.40;;;8.10;99.90;;;;;;5095605;28;20085;-73
2022/11/16 13:18:28;;;;;;;78.93;31.23;;;8.10;99.90;;;;;;5104067;28;20019;-73
2022/11/16 13:21:17;;;;;;;77.43;29.17;;;8.10;99.90;;;;;;5083490;28;20107;-73
2022/11/16 13:24:11;;;;;;;83.40;30.58;;;8.20;99.90;;;;;;5098187;28;20058;-73
2022/11/16 13:26:54;;;;;;;74.50;28.75;;;8.20;99.90;;;;;;5093000;28;20031;-73
2022/11/16 13:29:23;;;;;;;73.93;30.75;;;8.10;99.90;;;;;;5106066;27;20015;-74
2022/11/16 13:32:11;;;;;;;66.43;30.05;;;8.10;99.90;;;;;;5088154;28;20030;-72
2022/11/16 13:34:39;;;;;;;68.95;29.35;;;8.10;99.90;;;;;;5084491;28;20351;-72
2022/11/16 13:37:32;;;;;;;79.10;29.05;;;8.00;99.90;;;;;;5099008;28;20031;-73
2022/11/16 13:39:58;;;;;;;77.15;29.25;;;8.10;99.90;;;;;;5088276;28;20038;-73